Time;durP1;ratioP1;P1;durP2;ratioP2;P2;SDS_P1;SDS_P2;PMS_P1;PMS_P2;Temp;Humidity;BMP_temperature;BMP_pressure;BME280_temperature;BME280_humidity;BME280_pressure;Samples;Min_cycle;Max_cycle;Signal;HPM_P1;HPM_P2
2023/03/03 00:02:03;;;;;;;3.10;2.75;;;;;;;5.15;85.93;94810.22;5007335;28;20419;-79
2023/03/03 00:04:29;;;;;;;3.63;2.53;;;;;;;5.55;85.71;94871.63;5010978;28;20410;-80
2023/03/03 00:06:54;;;;;;;3.78;2.50;;;;;;;5.44;85.46;94845.97;5005801;28;20410;-79
2023/03/03 00:09:19;;;;;;;4.30;2.30;;;;;;;5.57;85.61;94876.66;5005812;28;20417;-80
2023/03/03 00:11:48;;;;;;;4.00;2.90;;;;;;;5.50;85.85;94866.13;5004075;28;20415;-79
2023/03/03 00:14:29;;;;;;;3.25;2.72;;;;;;;5.56;85.51;94868.03;5003544;28;20454;-80
2023/03/03 00:16:56;;;;;;;4.57;2.90;;;;;;;5.27;85.75;94826.25;5009994;28;20427;-80
2023/03/03 00:19:22;;;;;;;4.57;2.92;;;;;;;5.43;86.14;94862.63;5009402;28;20807;-80
2023/03/03 00:21:51;;;;;;;3.85;2.92;;;;;;;5.32;86.34;94837.78;5005432;28;20449;-80
2023/03/03 00:24:24;;;;;;;3.50;2.97;;;;;;;5.54;85.98;94858.72;5004153;28;20412;-80
2023/03/03 00:26:54;;;;;;;3.63;2.92;;;;;;;5.40;86.06;94833.44;5009338;28;20417;-80
2023/03/03 00:29:39;;;;;;;6.68;3.53;;;;;;;5.46;86.11;94854.41;5009022;28;20506;-79
2023/03/03 00:32:13;;;;;;;3.95;3.03;;;;;;;5.39;86.94;94852.69;5012510;28;20415;-79
2023/03/03 00:34:40;;;;;;;3.47;2.43;;;;;;;5.53;86.30;94855.34;5008855;28;20182;-78
2023/03/03 00:37:24;;;;;;;4.05;3.30;;;;;;;5.61;86.14;94852.63;5008634;28;20456;-79
2023/03/03 00:39:49;;;;;;;5.25;3.35;;;;;;;5.45;86.28;94844.97;5009249;28;20414;-79
2023/03/03 00:42:17;;;;;;;6.13;3.85;;;;;;;5.43;87.03;94851.38;5008510;28;20852;-78
2023/03/03 00:44:59;;;;;;;5.15;3.85;;;;;;;5.11;87.35;94802.91;5008943;28;20423;-79
2023/03/03 00:47:35;;;;;;;5.03;3.88;;;;;;;5.41;87.23;94841.09;5001179;28;21176;-78
2023/03/03 00:50:06;;;;;;;4.80;3.50;;;;;;;5.35;87.10;94834.00;5010600;28;20107;-78
2023/03/03 00:52:43;;;;;;;5.10;3.67;;;;;;;5.32;87.41;94826.50;5004097;28;20410;-79
2023/03/03 00:55:10;;;;;;;4.85;3.88;;;;;;;5.24;87.60;94814.38;5011247;28;20815;-77
2023/03/03 00:57:36;;;;;;;5.37;3.43;;;;;;;5.36;87.64;94825.19;5009661;28;20620;-78
2023/03/03 01:00:02;;;;;;;6.45;3.55;;;;;;;5.22;87.59;94815.53;5010767;28;20458;-77
2023/03/03 01:02:28;;;;;;;4.75;4.07;;;;;;;5.04;88.63;94807.22;5010484;28;20468;-78
2023/03/03 01:04:56;;;;;;;4.88;3.85;;;;;;;5.12;88.18;94797.53;5009940;28;20421;-79
2023/03/03 01:07:22;;;;;;;6.63;3.90;;;;;;;5.22;88.38;94816.34;5012251;28;20609;-78
2023/03/03 01:09:48;;;;;;;5.50;3.80;;;;;;;5.23;88.22;94806.72;4993899;28;21180;-78
2023/03/03 01:12:14;;;;;;;5.23;3.67;;;;;;;5.34;88.11;94806.28;5012179;28;20418;-78
2023/03/03 01:14:40;;;;;;;5.53;4.18;;;;;;;5.43;87.42;94812.22;5001622;28;20419;-77
2023/03/03 01:17:06;;;;;;;5.00;3.50;;;;;;;5.50;87.22;94811.31;5006304;28;20845;-80
2023/03/03 01:19:32;;;;;;;7.30;4.35;;;;;;;5.39;87.34;94801.31;5003338;28;20843;-79
2023/03/03 01:21:57;;;;;;;5.20;3.80;;;;;;;5.35;87.56;94789.63;5011528;28;20867;-80
2023/03/03 01:24:23;;;;;;;6.57;3.90;;;;;;;5.47;87.52;94803.03;5008792;28;20923;-78
2023/03/03 01:26:48;;;;;;;5.68;3.92;;;;;;;5.52;87.06;94809.34;5008718;28;20411;-79
2023/03/03 01:29:14;;;;;;;5.30;3.90;;;;;;;5.32;87.89;94796.00;4996153;28;20427;-80
2023/03/03 01:31:39;;;;;;;5.43;3.43;;;;;;;5.44;87.67;94800.78;5004703;28;20542;-79
2023/03/03 01:34:06;;;;;;;4.70;3.35;;;;;;;5.51;86.93;94806.91;5012500;28;20558;-79
2023/03/03 01:36:32;;;;;;;5.37;3.10;;;;;;;5.49;87.44;94814.91;5011207;28;20204;-79
2023/03/03 01:38:58;;;;;;;5.82;3.72;;;;;;;5.48;87.00;94799.44;5006280;28;20468;-80
2023/03/03 01:41:28;;;;;;;5.50;4.00;;;;;;;5.40;87.51;94800.34;5009888;28;20431;-79
2023/03/03 01:43:54;;;;;;;5.85;4.15;;;;;;;5.27;87.83;94800.16;5005149;28;20433;-80
2023/03/03 01:46:23;;;;;;;5.78;4.20;;;;;;;5.11;88.99;94797.69;5011722;28;20410;-80
2023/03/03 01:48:55;;;;;;;5.75;4.05;;;;;;;5.24;89.29;94800.50;5011645;28;20410;-80
2023/03/03 01:51:30;;;;;;;4.17;3.50;;;;;;;5.24;88.50;94806.53;5010417;28;20204;-80
2023/03/03 01:54:05;;;;;;;5.23;4.10;;;;;;;5.03;88.41;94780.34;5009811;28;20442;-80
2023/03/03 01:56:30;;;;;;;5.07;4.03;;;;;;;4.76;88.86;94741.81;5010273;28;20933;-80
2023/03/03 01:59:11;;;;;;;5.30;4.20;;;;;;;4.98;90.01;94795.72;5010415;28;20418;-79
2023/03/03 02:01:36;;;;;;;4.53;3.20;;;;;;;5.06;89.62;94790.41;5012042;28;21001;-78
2023/03/03 02:04:02;;;;;;;4.23;3.07;;;;;;;4.95;89.20;94767.38;5012444;28;20186;-79
2023/03/03 02:06:43;;;;;;;6.90;4.00;;;;;;;5.00;89.23;94777.28;5009813;28;20443;-78
2023/03/03 02:09:20;;;;;;;7.10;3.73;;;;;;;5.05;89.58;94793.19;5001097;28;20267;-78
2023/03/03 02:11:49;;;;;;;5.57;3.80;;;;;;;5.05;89.82;94783.56;5012237;28;20176;-79
2023/03/03 02:14:15;;;;;;;5.18;3.67;;;;;;;5.17;88.85;94790.00;5003940;28;20419;-78
2023/03/03 02:16:40;;;;;;;5.95;3.80;;;;;;;5.16;88.52;94787.56;5009569;28;20434;-79
2023/03/03 02:19:20;;;;;;;4.97;3.80;;;;;;;5.01;88.79;94789.34;5009592;28;20422;-78
2023/03/03 02:21:45;;;;;;;6.63;3.60;;;;;;;5.12;88.76;94794.91;5014519;28;20180;-78
2023/03/03 02:24:36;;;;;;;5.60;3.50;;;;;;;5.07;89.29;94794.66;5009841;28;20905;-80
2023/03/03 02:27:02;;;;;;;6.55;3.65;;;;;;;5.02;88.94;94788.31;4999395;28;20813;-80
2023/03/03 02:29:27;;;;;;;3.83;3.10;;;;;;;4.95;89.26;94783.03;5010055;28;20179;-78
2023/03/03 02:31:53;;;;;;;5.17;4.00;;;;;;;5.14;88.78;94798.16;5007897;28;20422;-79
2023/03/03 02:34:18;;;;;;;4.63;3.83;;;;;;;5.02;88.16;94772.69;5005941;28;20431;-78
2023/03/03 02:36:43;;;;;;;4.80;4.00;;;;;;;5.14;88.36;94787.72;5008864;28;20442;-79
2023/03/03 02:39:17;;;;;;;5.30;3.30;;;;;;;5.20;88.13;94778.34;5014440;28;20468;-78
2023/03/03 02:42:01;;;;;;;4.13;3.22;;;;;;;5.39;87.46;94790.88;5010848;28;20410;-79
2023/03/03 02:44:29;;;;;;;4.40;3.40;;;;;;;5.41;86.78;94791.50;5003784;28;20416;-78
2023/03/03 02:46:55;;;;;;;3.75;3.35;;;;;;;5.27;86.76;94789.72;5010227;28;20418;-78
2023/03/03 02:49:27;;;;;;;3.70;2.73;;;;;;;4.99;87.87;94786.91;5016118;28;20272;-78
2023/03/03 02:51:53;;;;;;;3.90;3.10;;;;;;;4.85;88.82;94770.22;5014126;28;20422;-79
2023/03/03 02:54:21;;;;;;;3.00;2.60;;;;;;;5.11;88.23;94787.25;5015160;28;20228;-78
2023/03/03 02:56:46;;;;;;;4.03;2.80;;;;;;;5.17;88.27;94786.56;5015173;28;20287;-79
2023/03/03 02:59:12;;;;;;;4.10;3.20;;;;;;;5.15;88.14;94784.13;5013939;28;20436;-79
2023/03/03 03:01:38;;;;;;;3.67;3.10;;;;;;;4.96;87.69;94740.31;5013995;28;20948;-79
2023/03/03 03:04:10;;;;;;;4.57;3.00;;;;;;;5.30;87.66;94786.75;5015024;28;20410;-78
2023/03/03 03:06:35;;;;;;;5.22;3.78;;;;;;;5.33;87.43;94783.78;5006930;28;20497;-81
2023/03/03 03:09:01;;;;;;;4.00;3.07;;;;;;;5.34;87.19;94777.56;5015074;28;21034;-79
2023/03/03 03:11:26;;;;;;;3.83;3.17;;;;;;;5.39;87.08;94793.47;5015249;28;20290;-78
2023/03/03 03:13:52;;;;;;;4.20;3.35;;;;;;;5.19;87.60;94756.69;5013660;28;20426;-78
2023/03/03 03:16:18;;;;;;;4.40;3.13;;;;;;;5.26;87.71;94775.88;5014729;28;20430;-79
2023/03/03 03:18:43;;;;;;;4.73;3.33;;;;;;;5.36;87.83;94774.78;5014870;28;20994;-79
2023/03/03 03:21:11;;;;;;;5.40;3.92;;;;;;;5.31;87.37;94768.28;5014205;28;20410;-79
2023/03/03 03:23:37;;;;;;;5.20;3.70;;;;;;;5.33;87.93;94781.16;5014919;28;20223;-79
2023/03/03 03:26:03;;;;;;;5.32;3.95;;;;;;;5.30;88.15;94777.09;5014291;28;20898;-79
2023/03/03 03:28:29;;;;;;;5.10;4.07;;;;;;;5.06;87.70;94727.00;5013749;28;20439;-80
2023/03/03 03:30:54;;;;;;;5.40;4.20;;;;;;;5.08;88.26;94740.69;5013865;28;20418;-79
2023/03/03 03:33:20;;;;;;;6.10;4.57;;;;;;;5.18;88.72;94768.13;5013231;28;20449;-79
2023/03/03 03:35:46;;;;;;;4.17;3.40;;;;;;;5.36;89.03;94778.22;5014283;28;20257;-78
2023/03/03 03:38:13;;;;;;;5.93;3.85;;;;;;;5.41;88.24;94773.25;5014310;28;20418;-79
2023/03/03 03:40:39;;;;;;;5.37;4.03;;;;;;;5.32;88.36;94758.66;5014300;28;20259;-79
2023/03/03 03:43:05;;;;;;;7.00;4.82;;;;;;;5.23;88.72;94764.97;5013143;28;20506;-80
2023/03/03 03:45:31;;;;;;;6.33;4.50;;;;;;;5.15;89.25;94767.66;5014868;28;20192;-79
2023/03/03 03:47:57;;;;;;;6.28;4.82;;;;;;;4.99;89.97;94770.44;5013194;28;20418;-79
2023/03/03 03:50:22;;;;;;;6.53;5.10;;;;;;;4.96;90.25;94760.38;5013793;28;20417;-78
2023/03/03 03:52:49;;;;;;;7.37;5.03;;;;;;;4.88;90.75;94761.25;5013250;28;20916;-80
2023/03/03 03:55:14;;;;;;;6.20;4.65;;;;;;;4.94;91.30;94763.94;5012675;28;20451;-79
2023/03/03 03:57:40;;;;;;;6.57;4.57;;;;;;;4.99;90.85;94763.44;5014479;28;20239;-79
2023/03/03 04:00:07;;;;;;;6.28;4.70;;;;;;;5.05;91.19;94765.31;5013052;28;20841;-78
2023/03/03 04:02:33;;;;;;;7.85;5.40;;;;;;;4.88;91.01;94740.41;5012477;28;20489;-79
2023/03/03 04:04:59;;;;;;;8.60;5.37;;;;;;;4.97;91.32;94746.34;5013719;28;20438;-80
2023/03/03 04:07:24;;;;;;;8.00;5.15;;;;;;;4.65;91.53;94690.13;5012975;28;20989;-80
2023/03/03 04:09:50;;;;;;;6.13;4.37;;;;;;;4.72;91.48;94709.28;5014322;28;20656;-81
2023/03/03 04:12:15;;;;;;;7.43;5.60;;;;;;;5.12;91.67;94758.38;5012568;28;20986;-80
2023/03/03 04:14:40;;;;;;;8.67;5.43;;;;;;;4.81;91.14;94724.66;5013832;28;20177;-79
2023/03/03 04:17:06;;;;;;;9.45;6.47;;;;;;;4.69;91.03;94702.63;5009448;28;20446;-80
2023/03/03 04:19:31;;;;;;;7.20;4.83;;;;;;;5.03;91.40;94756.84;5013630;28;20180;-79
2023/03/03 04:21:56;;;;;;;8.93;6.70;;;;;;;5.08;91.79;94757.16;5012666;28;20527;-77
2023/03/03 04:24:22;;;;;;;8.73;6.33;;;;;;;4.81;91.29;94714.22;5017799;28;20421;-78
2023/03/03 04:26:47;;;;;;;8.53;5.67;;;;;;;4.91;91.72;94740.84;5013431;28;20276;-80
2023/03/03 04:29:13;;;;;;;8.83;5.63;;;;;;;5.06;91.55;94753.91;5013380;28;20199;-80
2023/03/03 04:31:38;;;;;;;6.27;5.03;;;;;;;4.86;91.48;94721.50;5012271;28;20177;-78
2023/03/03 04:34:03;;;;;;;8.03;6.43;;;;;;;4.98;91.70;94737.53;5012388;28;20418;-78
2023/03/03 04:36:29;;;;;;;9.80;6.17;;;;;;;4.96;91.09;94749.94;5012359;28;20439;-79
2023/03/03 04:38:54;;;;;;;8.73;5.60;;;;;;;4.71;91.95;94721.50;5013022;28;20430;-79
2023/03/03 04:41:20;;;;;;;8.17;5.00;;;;;;;4.93;92.83;94749.28;5013164;28;20180;-79
2023/03/03 04:43:45;;;;;;;8.43;5.30;;;;;;;4.98;92.26;94750.56;5013487;28;20418;-79
2023/03/03 04:46:11;;;;;;;11.53;7.03;;;;;;;4.87;92.09;94746.59;5012260;28;20905;-80
2023/03/03 04:48:37;;;;;;;8.97;5.57;;;;;;;4.96;92.35;94748.13;5012407;28;20203;-79
2023/03/03 04:51:03;;;;;;;10.07;6.00;;;;;;;4.98;92.70;94750.56;5011322;28;20422;-79
2023/03/03 04:53:28;;;;;;;10.43;5.93;;;;;;;4.99;92.47;94747.78;5012992;28;20181;-79
2023/03/03 04:55:53;;;;;;;9.10;6.40;;;;;;;4.95;93.17;94746.50;5012343;28;20439;-79
2023/03/03 04:58:19;;;;;;;9.97;5.80;;;;;;;5.02;92.92;94746.59;5012678;28;20180;-79
2023/03/03 05:00:45;;;;;;;9.67;5.23;;;;;;;4.92;91.96;94726.03;5012922;28;20183;-79
2023/03/03 05:03:12;;;;;;;8.45;5.63;;;;;;;4.96;92.40;94760.38;5012189;28;20501;-79
2023/03/03 05:05:37;;;;;;;9.50;5.97;;;;;;;4.81;92.67;94727.28;5012715;28;20307;-79
2023/03/03 05:08:03;;;;;;;9.38;6.03;;;;;;;4.78;92.45;94725.00;5011567;28;20513;-79
2023/03/03 05:10:28;;;;;;;10.25;6.53;;;;;;;4.93;92.48;94757.13;5012203;28;20430;-79
2023/03/03 05:12:54;;;;;;;9.43;5.50;;;;;;;4.65;92.47;94709.19;5012281;28;20424;-79
2023/03/03 05:15:19;;;;;;;9.23;5.50;;;;;;;5.05;92.31;94761.91;5011926;28;20532;-78
2023/03/03 05:17:45;;;;;;;8.10;5.47;;;;;;;4.96;91.82;94763.78;5012170;28;20172;-79
2023/03/03 05:20:12;;;;;;;8.90;5.83;;;;;;;5.06;92.12;94758.31;5012066;28;20612;-79
2023/03/03 05:22:37;;;;;;;8.77;6.17;;;;;;;5.10;92.38;94765.56;5012164;28;20423;-78
2023/03/03 05:25:03;;;;;;;10.40;6.63;;;;;;;5.01;92.47;94768.47;5011313;28;20411;-78
2023/03/03 05:27:28;;;;;;;10.07;6.53;;;;;;;4.81;92.86;94739.50;5022617;28;20496;-79
2023/03/03 05:29:54;;;;;;;10.27;6.78;;;;;;;4.84;93.32;94732.09;5015572;28;20489;-78
2023/03/03 05:32:19;;;;;;;8.83;6.13;;;;;;;5.17;93.33;94765.69;5012206;28;20559;-78
2023/03/03 05:34:45;;;;;;;10.80;6.40;;;;;;;5.28;92.30;94762.63;5012215;28;20172;-78
2023/03/03 05:37:10;;;;;;;8.47;5.60;;;;;;;5.21;91.95;94769.53;5012606;28;20196;-78
2023/03/03 05:39:36;;;;;;;11.57;6.80;;;;;;;5.16;92.56;94770.09;5011886;28;20933;-79
2023/03/03 05:42:01;;;;;;;10.47;7.03;;;;;;;5.18;93.38;94768.13;5011762;28;20833;-78
2023/03/03 05:44:27;;;;;;;11.20;6.90;;;;;;;4.94;93.21;94747.50;5010436;28;20473;-78
2023/03/03 05:46:52;;;;;;;12.68;7.63;;;;;;;5.07;93.20;94767.75;5011021;28;20485;-79
2023/03/03 05:49:18;;;;;;;13.70;7.25;;;;;;;4.99;92.83;94773.06;5011367;28;20437;-79
2023/03/03 05:51:44;;;;;;;10.10;5.93;;;;;;;4.69;93.59;94741.72;5011484;28;20195;-78
2023/03/03 05:54:09;;;;;;;12.00;7.35;;;;;;;4.84;94.34;94758.19;5010444;28;20438;-79
2023/03/03 05:56:35;;;;;;;10.53;6.43;;;;;;;4.86;93.94;94768.44;5011502;28;20200;-78
2023/03/03 05:59:00;;;;;;;12.73;7.30;;;;;;;4.82;94.35;94738.50;5012486;28;20703;-78
2023/03/03 06:01:27;;;;;;;12.17;7.30;;;;;;;5.03;93.88;94753.44;5012174;28;20204;-78
2023/03/03 06:03:52;;;;;;;11.55;7.00;;;;;;;5.23;93.42;94770.19;5011862;28;20414;-78
2023/03/03 06:06:18;;;;;;;12.07;6.43;;;;;;;5.12;92.52;94762.78;5011987;28;20226;-78
2023/03/03 06:08:44;;;;;;;10.63;6.27;;;;;;;5.18;91.56;94772.53;5010556;28;20505;-78
2023/03/03 06:11:10;;;;;;;11.47;7.33;;;;;;;5.05;91.80;94772.34;5011048;28;20468;-79
2023/03/03 06:13:36;;;;;;;9.07;5.97;;;;;;;4.99;92.28;94765.22;5011392;28;20486;-78
2023/03/03 06:16:01;;;;;;;12.87;7.43;;;;;;;5.09;92.50;94777.03;5011661;28;20210;-78
2023/03/03 06:18:27;;;;;;;10.63;6.50;;;;;;;5.17;92.90;94774.34;5011437;28;20211;-78
2023/03/03 06:20:53;;;;;;;12.10;7.00;;;;;;;5.27;91.66;94782.72;5010809;28;20418;-78
2023/03/03 06:23:19;;;;;;;12.37;6.60;;;;;;;5.07;90.87;94768.56;5011729;28;20223;-79
2023/03/03 06:25:44;;;;;;;11.43;6.80;;;;;;;5.08;91.21;94772.81;5011576;28;20418;-78
2023/03/03 06:28:10;;;;;;;10.80;6.53;;;;;;;5.04;91.77;94770.72;5011835;28;20180;-78
2023/03/03 06:30:35;;;;;;;10.17;5.83;;;;;;;5.07;92.28;94760.75;5012006;28;20149;-79
2023/03/03 06:33:01;;;;;;;8.73;5.80;;;;;;;5.27;92.80;94787.94;5012010;28;20168;-79
2023/03/03 06:35:26;;;;;;;9.93;6.17;;;;;;;5.29;92.54;94782.50;5011760;28;20204;-79
2023/03/03 06:37:52;;;;;;;12.20;6.93;;;;;;;5.13;92.83;94740.94;5011741;28;20251;-79
2023/03/03 06:40:17;;;;;;;10.10;6.03;;;;;;;5.38;92.53;94773.59;5011848;28;20180;-80
2023/03/03 06:42:43;;;;;;;11.40;6.80;;;;;;;5.32;92.24;94764.69;5011748;28;20668;-80
2023/03/03 06:45:08;;;;;;;9.40;6.57;;;;;;;5.41;92.59;94773.25;5012258;28;20173;-79
2023/03/03 06:47:34;;;;;;;10.23;5.87;;;;;;;5.47;91.76;94772.50;5011576;28;20207;-80
2023/03/03 06:49:59;;;;;;;9.77;4.80;;;;;;;5.58;90.92;94784.28;5011581;28;20196;-80
2023/03/03 06:52:26;;;;;;;8.27;4.97;;;;;;;5.69;90.56;94792.50;5011476;28;20311;-79
2023/03/03 06:54:57;;;;;;;8.33;5.20;;;;;;;5.60;90.35;94788.34;5010534;28;20208;-80
2023/03/03 06:57:29;;;;;;;8.47;5.37;;;;;;;5.72;89.85;94799.13;4998278;28;20242;-79
2023/03/03 07:00:19;;;;;;;8.57;5.23;;;;;;;5.83;88.99;94792.63;5010618;28;20710;-80
2023/03/03 07:02:45;;;;;;;7.47;4.97;;;;;;;5.80;88.23;94800.81;5004874;28;20530;-79
2023/03/03 07:05:17;;;;;;;7.43;5.53;;;;;;;5.63;89.10;94776.72;5006185;28;20181;-80
2023/03/03 07:07:43;;;;;;;9.97;5.57;;;;;;;5.80;90.40;94796.41;5008951;28;20260;-80
2023/03/03 07:10:23;;;;;;;8.10;5.43;;;;;;;5.55;90.66;94756.75;5009697;28;20168;-80
2023/03/03 07:12:48;;;;;;;8.80;6.00;;;;;;;5.94;90.77;94802.66;5009974;28;20263;-80
2023/03/03 07:15:16;;;;;;;9.07;5.83;;;;;;;5.86;90.38;94800.94;5009986;28;20309;-80
2023/03/03 07:17:47;;;;;;;10.53;5.50;;;;;;;5.83;88.68;94788.22;5010403;28;20176;-80
2023/03/03 07:20:20;;;;;;;9.70;6.30;;;;;;;5.89;89.02;94803.19;5007513;28;20266;-80
2023/03/03 07:22:46;;;;;;;8.93;5.77;;;;;;;5.87;89.74;94797.31;5010933;28;20164;-80
2023/03/03 07:25:26;;;;;;;10.33;6.50;;;;;;;5.77;89.70;94778.50;5011005;28;20231;-80
2023/03/03 07:27:55;;;;;;;8.70;5.70;;;;;;;5.91;89.43;94803.81;5014580;28;20667;-79
2023/03/03 07:30:25;;;;;;;10.20;5.60;;;;;;;5.83;89.47;94805.69;4993986;28;20179;-79
2023/03/03 07:32:57;;;;;;;10.73;5.80;;;;;;;5.71;89.50;94796.72;5012100;28;20176;-79
2023/03/03 07:35:39;;;;;;;7.90;5.27;;;;;;;5.79;89.37;94792.22;5011779;28;20184;-79
2023/03/03 07:38:28;;;;;;;9.37;4.97;;;;;;;5.78;88.47;94801.03;5014575;28;20174;-80
2023/03/03 07:40:56;;;;;;;12.43;6.10;;;;;;;5.77;89.38;94794.19;5014575;28;20658;-80
2023/03/03 07:43:35;;;;;;;7.10;4.90;;;;;;;5.77;89.53;94801.22;5014882;28;20157;-81
2023/03/03 07:46:10;;;;;;;9.83;5.97;;;;;;;5.66;89.47;94803.28;5014647;28;20152;-81
2023/03/03 07:48:39;;;;;;;11.80;5.60;;;;;;;5.48;89.98;94800.22;4996857;28;20226;-81
2023/03/03 07:51:17;;;;;;;7.77;5.57;;;;;;;5.11;90.49;94737.69;4996907;28;20165;-86
2023/03/03 07:53:43;;;;;;;10.47;5.97;;;;;;;4.97;91.72;94733.28;5013040;28;20232;-83
2023/03/03 07:56:19;;;;;;;7.93;5.37;;;;;;;5.14;92.16;94756.41;5014573;28;20181;-82
2023/03/03 07:58:46;;;;;;;8.33;5.63;;;;;;;5.32;92.67;94790.78;5014339;28;20631;-82
2023/03/03 08:01:27;;;;;;;9.20;5.93;;;;;;;5.32;91.63;94787.38;5014280;28;20231;-82
2023/03/03 08:03:53;;;;;;;9.67;5.93;;;;;;;5.26;92.30;94777.66;5013896;28;20183;-82
2023/03/03 08:06:21;;;;;;;9.40;5.93;;;;;;;5.52;91.82;94788.44;5014156;28;20627;-82
2023/03/03 08:08:47;;;;;;;8.37;5.23;;;;;;;5.66;91.45;94786.81;5014096;28;20203;-81
2023/03/03 08:11:12;;;;;;;8.43;5.90;;;;;;;5.51;90.62;94746.88;5014064;28;20172;-83
2023/03/03 08:13:40;;;;;;;10.87;5.83;;;;;;;5.62;90.51;94794.19;5014367;28;20161;-81
2023/03/03 08:16:09;;;;;;;7.60;5.83;;;;;;;5.80;91.50;94785.97;5013590;28;20193;-80
2023/03/03 08:18:42;;;;;;;7.40;5.20;;;;;;;6.01;91.99;94788.66;5014115;28;20697;-79
2023/03/03 08:21:17;;;;;;;9.77;5.90;;;;;;;5.99;88.68;94761.91;5013825;28;20211;-82
2023/03/03 08:23:43;;;;;;;9.97;5.97;;;;;;;6.14;88.78;94772.31;4997151;28;20169;-80
2023/03/03 08:26:11;;;;;;;11.07;6.87;;;;;;;6.25;88.30;94777.03;5005535;28;20172;-79
2023/03/03 08:28:36;;;;;;;10.70;5.90;;;;;;;6.24;88.65;94751.09;5009681;28;20164;-78
2023/03/03 08:31:02;;;;;;;11.40;6.20;;;;;;;6.19;87.96;94754.28;5009782;28;20176;-79
2023/03/03 08:33:29;;;;;;;9.13;6.03;;;;;;;6.27;89.12;94743.69;5010301;28;20169;-81
2023/03/03 08:35:54;;;;;;;11.60;6.40;;;;;;;6.28;88.31;94736.66;5008770;28;20358;-79
2023/03/03 08:38:20;;;;;;;11.13;6.47;;;;;;;6.54;88.44;94775.31;5003459;28;20684;-79
2023/03/03 08:40:47;;;;;;;9.13;5.90;;;;;;;6.54;88.80;94772.69;4994357;28;20177;-79
2023/03/03 08:43:15;;;;;;;9.50;6.40;;;;;;;6.59;88.42;94772.94;5009951;28;20259;-79
2023/03/03 08:45:46;;;;;;;10.37;6.57;;;;;;;6.46;86.90;94773.63;5004021;28;20184;-80
2023/03/03 08:48:12;;;;;;;11.13;6.83;;;;;;;6.37;87.41;94757.28;5006562;28;20211;-78
2023/03/03 08:50:38;;;;;;;13.23;6.63;;;;;;;6.35;88.11;94753.22;4997363;28;20177;-78
2023/03/03 08:53:04;;;;;;;8.57;6.30;;;;;;;6.44;88.02;94749.47;5007465;28;20187;-79
2023/03/03 08:55:30;;;;;;;11.23;7.20;;;;;;;6.59;88.28;94765.91;5012837;28;20218;-81
2023/03/03 08:57:55;;;;;;;9.13;5.70;;;;;;;6.81;87.54;94777.97;5013185;28;20230;-81
2023/03/03 09:00:21;;;;;;;11.70;5.87;;;;;;;6.61;85.32;94748.22;5012784;28;20159;-81
2023/03/03 09:02:49;;;;;;;9.67;6.37;;;;;;;6.79;85.59;94781.75;4993295;28;20176;-81
2023/03/03 09:05:16;;;;;;;8.97;6.17;;;;;;;6.74;86.27;94755.38;5010088;28;20218;-81
2023/03/03 09:07:43;;;;;;;9.20;5.90;;;;;;;6.85;85.81;94772.34;4990479;28;20173;-81
2023/03/03 09:10:11;;;;;;;8.93;5.73;;;;;;;6.68;84.61;94745.66;4995282;28;20196;-81
2023/03/03 09:12:42;;;;;;;8.77;6.30;;;;;;;6.72;85.21;94767.81;5009414;28;20200;-81
2023/03/03 09:15:19;;;;;;;11.33;6.53;;;;;;;6.67;85.44;94775.41;5010140;28;20242;-81
2023/03/03 09:17:46;;;;;;;10.23;6.07;;;;;;;6.62;85.76;94783.03;5009438;28;20176;-81
2023/03/03 09:20:27;;;;;;;12.87;6.27;;;;;;;6.46;86.61;94773.63;5009071;28;20210;-81
2023/03/03 09:22:52;;;;;;;10.00;5.87;;;;;;;6.54;87.11;94759.63;4998160;28;20543;-81
2023/03/03 09:25:32;;;;;;;9.77;5.97;;;;;;;6.57;86.92;94749.59;4992115;28;20177;-81
2023/03/03 09:27:58;;;;;;;10.40;6.77;;;;;;;6.79;86.24;94768.69;5009353;28;20184;-81
2023/03/03 09:30:26;;;;;;;11.57;6.43;;;;;;;6.76;86.82;94775.09;5010648;28;20183;-81
2023/03/03 09:32:55;;;;;;;11.97;7.20;;;;;;;6.92;87.56;94767.97;5010695;28;20685;-81
2023/03/03 09:35:36;;;;;;;16.10;7.37;;;;;;;7.02;85.62;94769.25;4985229;28;20263;-81
2023/03/03 09:38:21;;;;;;;10.67;7.47;;;;;;;7.01;85.52;94756.34;5010296;28;20180;-81
2023/03/03 09:41:02;;;;;;;9.97;6.53;;;;;;;7.08;85.52;94771.13;4991536;28;20734;-81
2023/03/03 09:43:48;;;;;;;10.80;6.53;;;;;;;7.09;85.12;94770.09;4991068;28;20632;-81
2023/03/03 09:46:36;;;;;;;10.10;6.17;;;;;;;7.17;86.53;94769.97;4990907;28;20169;-81
2023/03/03 09:49:01;;;;;;;12.80;7.17;;;;;;;7.30;86.41;94776.28;4990920;28;20185;-81
2023/03/03 09:51:40;;;;;;;12.53;6.40;;;;;;;7.39;86.98;94775.13;5001508;28;20183;-81
2023/03/03 09:54:43;;;;;;;12.90;7.13;;;;;;;7.53;86.58;94776.78;5008690;28;20228;-81
2023/03/03 09:57:38;;;;;;;10.07;6.73;;;;;;;7.16;83.15;94718.63;5009280;28;20239;-81
2023/03/03 10:00:04;;;;;;;55.17;28.70;;;;;;;7.40;83.83;94771.50;5010925;28;20331;-81
2023/03/03 10:02:50;;;;;;;13.63;7.47;;;;;;;7.18;85.43;94721.03;5011054;28;20958;-81
2023/03/03 10:05:40;;;;;;;13.83;6.43;;;;;;;7.37;83.48;94753.56;5009352;28;20172;-81
2023/03/03 10:08:36;;;;;;;10.67;6.53;;;;;;;7.25;83.02;94747.25;5000424;28;20303;-81
2023/03/03 10:11:12;;;;;;;11.30;6.03;;;;;;;7.38;83.48;94768.25;5010682;28;20255;-81
2023/03/03 10:13:38;;;;;;;9.53;6.17;;;;;;;7.37;83.78;94766.66;5010672;28;20172;-81
2023/03/03 10:16:09;;;;;;;10.80;6.33;;;;;;;7.38;84.36;94765.66;5010215;28;20201;-81
2023/03/03 10:18:59;;;;;;;44.07;25.73;;;;;;;7.19;84.76;94746.19;5010370;28;20183;-81
2023/03/03 10:21:48;;;;;;;12.83;7.37;;;;;;;7.39;85.44;94759.41;4992949;28;20176;-81
2023/03/03 10:24:37;;;;;;;11.20;6.77;;;;;;;7.42;85.90;94754.59;5009351;28;20673;-81
2023/03/03 10:27:06;;;;;;;11.53;7.33;;;;;;;7.35;84.83;94752.97;5010435;28;20191;-80
2023/03/03 10:29:53;;;;;;;12.47;7.23;;;;;;;7.28;84.64;94754.72;5010513;28;20165;-82
2023/03/03 10:32:57;;;;;;;12.23;7.20;;;;;;;7.35;85.23;94748.50;5009137;28;20188;-82
2023/03/03 10:35:28;;;;;;;11.67;7.83;;;;;;;7.42;86.12;94745.94;4945231;28;20191;-83
2023/03/03 10:38:05;;;;;;;13.30;7.17;;;;;;;7.51;85.33;94744.78;5011370;28;20604;-83
2023/03/03 10:40:49;;;;;;;10.93;7.00;;;;;;;7.55;85.93;94741.56;5013944;28;20172;-82
2023/03/03 10:43:32;;;;;;;14.23;7.83;;;;;;;7.44;85.93;94721.16;5012663;28;20279;-82
2023/03/03 10:46:22;;;;;;;12.50;6.67;;;;;;;7.39;85.47;94707.03;5011969;28;20172;-82
2023/03/03 10:49:07;;;;;;;13.50;7.67;;;;;;;7.48;86.31;94724.22;5014180;28;20169;-84
2023/03/03 10:51:41;;;;;;;13.40;8.13;;;;;;;7.63;86.44;94740.59;5014658;28;20172;-81
2023/03/03 10:54:37;;;;;;;13.80;8.63;;;;;;;7.71;86.82;94729.13;5018063;28;20229;-81
2023/03/03 10:57:30;;;;;;;14.57;8.57;;;;;;;7.81;86.53;94734.81;5015001;28;20693;-81
2023/03/03 10:59:58;;;;;;;13.67;8.53;;;;;;;7.86;85.90;94730.63;5003584;28;20603;-80
2023/03/03 11:02:59;;;;;;;13.73;9.40;;;;;;;7.83;85.15;94717.88;5002264;28;20173;-82
2023/03/03 11:05:48;;;;;;;19.23;11.40;;;;;;;7.86;84.73;94717.50;4998529;28;20656;-81
2023/03/03 11:08:19;;;;;;;16.50;10.90;;;;;;;7.90;83.85;94726.56;5010431;28;20215;-81
2023/03/03 11:11:04;;;;;;;15.87;10.67;;;;;;;7.84;84.43;94709.03;5015332;28;20175;-80
2023/03/03 11:13:32;;;;;;;14.03;9.43;;;;;;;7.94;84.75;94721.75;5014989;28;20554;-80
2023/03/03 11:15:58;;;;;;;15.17;9.73;;;;;;;7.93;84.15;94717.53;5003919;28;20193;-82
2023/03/03 11:18:38;;;;;;;18.20;10.37;;;;;;;7.98;84.35;94707.25;5000300;28;20169;-80
2023/03/03 11:21:11;;;;;;;15.73;10.87;;;;;;;7.99;84.67;94705.44;5004622;28;20168;-79
2023/03/03 11:23:37;;;;;;;16.17;10.47;;;;;;;8.04;85.17;94703.03;5008430;28;20160;-81
2023/03/03 11:26:20;;;;;;;19.93;11.70;;;;;;;8.09;86.25;94706.66;5011780;28;20180;-81
2023/03/03 11:28:58;;;;;;;17.93;10.47;;;;;;;8.14;85.57;94700.81;5011794;28;20662;-81
2023/03/03 11:31:37;;;;;;;17.03;11.07;;;;;;;8.17;85.16;94706.47;5015394;28;20165;-80
2023/03/03 11:34:09;;;;;;;19.17;13.33;;;;;;;8.20;83.89;94710.53;5014235;28;20183;-82
2023/03/03 11:36:48;;;;;;;21.97;13.27;;;;;;;8.01;84.13;94695.56;5017326;28;20201;-82
2023/03/03 11:39:19;;;;;;;24.23;14.90;;;;;;;7.93;84.14;94689.50;5009932;28;20187;-81
2023/03/03 11:42:18;;;;;;;20.23;11.63;;;;;;;8.05;85.56;94702.00;5005705;28;20180;-81
2023/03/03 11:44:49;;;;;;;17.10;11.43;;;;;;;7.96;85.28;94681.22;5009976;28;20196;-81
2023/03/03 11:47:34;;;;;;;18.87;12.03;;;;;;;8.13;85.01;94702.63;5013764;28;20613;-80
2023/03/03 11:50:25;;;;;;;20.30;11.87;;;;;;;8.15;85.56;94694.56;5013343;28;20259;-80
2023/03/03 11:53:11;;;;;;;18.63;10.97;;;;;;;8.16;85.76;94688.31;4991277;28;20254;-80
2023/03/03 11:55:40;;;;;;;15.20;10.23;;;;;;;8.12;86.17;94681.88;4992897;28;20259;-80